Time;durP1;ratioP1;P1;durP2;ratioP2;P2;SDS_P1;SDS_P2;PMS_P1;PMS_P2;Temp;Humidity;BMP_temperature;BMP_pressure;BME280_temperature;BME280_humidity;BME280_pressure;Samples;Min_cycle;Max_cycle;Signal;HPM_P1;HPM_P2
2022/12/22 03:25:59;;;;;;;81.73;39.70;;;9.80;99.90;;;;;;4963051;28;38396;-76
2022/12/22 03:28:27;;;;;;;63.97;36.63;;;9.70;99.90;;;;;;4949882;28;36645;-76
2022/12/22 03:31:04;;;;;;;90.40;42.57;;;9.80;99.90;;;;;;4947787;28;38042;-77
2022/12/22 03:33:31;;;;;;;74.17;40.90;;;9.80;99.90;;;;;;4948524;28;46951;-77
2022/12/22 03:35:58;;;;;;;111.73;42.63;;;9.80;99.90;;;;;;4963805;28;37929;-77
2022/12/22 03:38:25;;;;;;;68.83;37.73;;;9.80;99.90;;;;;;4951395;28;35678;-77
2022/12/22 03:40:51;;;;;;;129.77;43.80;;;9.80;99.90;;;;;;4964438;28;38870;-77
2022/12/22 03:49:08;;;;;;;105.67;41.67;;;9.90;99.90;;;;;;4965115;28;49447;-77
2022/12/22 03:51:35;;;;;;;70.87;36.43;;;9.90;99.90;;;;;;4961208;28;47850;-76
2022/12/22 03:54:01;;;;;;;95.87;38.43;;;9.80;99.90;;;;;;4949012;28;38540;-77
2022/12/22 03:56:28;;;;;;;142.47;44.63;;;9.90;99.90;;;;;;4962194;28;38619;-77
2022/12/22 03:58:54;;;;;;;76.77;35.87;;;9.90;99.90;;;;;;4948133;28;36264;-77
2022/12/22 04:01:20;;;;;;;109.57;40.80;;;10.00;99.90;;;;;;4946158;28;37632;-77
2022/12/22 04:03:48;;;;;;;102.13;41.60;;;10.00;99.90;;;;;;4952835;28;38271;-77
2022/12/22 04:06:15;;;;;;;133.77;41.43;;;10.00;99.90;;;;;;4965242;28;38463;-77
2022/12/22 04:08:41;;;;;;;139.30;43.70;;;10.00;99.90;;;;;;4962466;28;35752;-77
2022/12/22 04:13:55;;;;;;;157.43;42.87;;;9.90;99.90;;;;;;4962023;28;39849;-76
2022/12/22 04:16:21;;;;;;;119.50;42.23;;;9.90;99.90;;;;;;4968877;28;38280;-77
2022/12/22 04:18:48;;;;;;;107.10;38.93;;;10.00;99.90;;;;;;4966791;28;38014;-77
2022/12/22 04:21:14;;;;;;;140.23;44.57;;;10.00;99.90;;;;;;4965696;28;37470;-76
2022/12/22 04:23:40;;;;;;;95.67;39.30;;;9.90;99.90;;;;;;4959831;28;37954;-77
2022/12/22 04:26:06;;;;;;;120.53;40.77;;;10.00;99.90;;;;;;4959963;28;36228;-79
2022/12/22 04:28:32;;;;;;;85.43;37.43;;;10.00;99.90;;;;;;4971048;28;37185;-76
2022/12/22 04:30:58;;;;;;;106.17;41.77;;;10.00;99.90;;;;;;4972651;28;38348;-78
2022/12/22 04:33:25;;;;;;;83.13;38.13;;;10.00;99.90;;;;;;4970657;28;39150;-78
2022/12/22 04:35:51;;;;;;;102.60;40.60;;;10.00;99.90;;;;;;4962485;28;36918;-78
2022/12/22 04:38:17;;;;;;;132.67;41.87;;;10.00;99.90;;;;;;4970412;28;36490;-77
2022/12/22 04:40:43;;;;;;;89.13;38.03;;;10.00;99.90;;;;;;4968992;28;39496;-78
2022/12/22 04:43:09;;;;;;;106.40;40.23;;;10.00;99.90;;;;;;4964660;28;39838;-78
2022/12/22 04:45:35;;;;;;;94.70;37.63;;;10.00;99.90;;;;;;4969153;28;38172;-77
2022/12/22 04:48:01;;;;;;;144.33;45.67;;;10.00;99.90;;;;;;4973466;28;37448;-77
2022/12/22 04:50:27;;;;;;;96.93;38.30;;;10.00;99.90;;;;;;4966252;28;37723;-77
2022/12/22 04:52:53;;;;;;;97.43;40.10;;;9.90;99.90;;;;;;4971151;28;38408;-78
2022/12/22 04:55:19;;;;;;;88.67;38.43;;;9.90;99.90;;;;;;4967917;28;38457;-77
2022/12/22 04:57:45;;;;;;;94.40;38.50;;;9.90;99.90;;;;;;4969293;28;35600;-77
2022/12/22 05:00:12;;;;;;;110.33;42.13;;;9.90;99.90;;;;;;4968334;28;39325;-78
2022/12/22 05:02:38;;;;;;;89.63;37.97;;;9.90;99.90;;;;;;4968374;28;38092;-77
2022/12/22 05:05:04;;;;;;;107.07;40.80;;;9.90;99.90;;;;;;4969750;28;38513;-78
2022/12/22 05:07:30;;;;;;;93.17;39.40;;;9.90;99.90;;;;;;4969238;28;36821;-77
2022/12/22 05:09:57;;;;;;;79.53;35.77;;;9.90;99.90;;;;;;4968020;28;38442;-77
2022/12/22 05:15:08;;;;;;;57.00;29.90;;;9.90;99.90;;;;;;4963692;28;39630;-78
2022/12/22 05:17:34;;;;;;;108.67;40.17;;;9.90;99.90;;;;;;4966699;28;36965;-77
2022/12/22 05:20:00;;;;;;;82.50;35.03;;;9.80;99.90;;;;;;4970175;28;37612;-77
2022/12/22 05:22:26;;;;;;;70.57;31.40;;;9.80;99.90;;;;;;4969810;28;37216;-77
2022/12/22 05:24:52;;;;;;;64.10;29.97;;;9.80;99.90;;;;;;4970581;28;39024;-77
2022/12/22 05:27:18;;;;;;;52.07;24.97;;;9.80;99.90;;;;;;4967246;28;37123;-77
2022/12/22 05:29:44;;;;;;;38.87;20.73;;;9.70;99.90;;;;;;4967235;28;38433;-78
2022/12/22 05:32:10;;;;;;;58.43;24.07;;;9.70;99.90;;;;;;4965729;28;37156;-77
2022/12/22 05:34:36;;;;;;;44.37;22.10;;;9.70;99.90;;;;;;4969281;28;38149;-78
2022/12/22 05:37:02;;;;;;;38.90;21.07;;;9.70;99.90;;;;;;4965666;28;36455;-78
2022/12/22 05:39:28;;;;;;;37.43;20.43;;;9.60;99.90;;;;;;4967298;28;39956;-77
2022/12/22 05:41:54;;;;;;;49.17;22.33;;;9.60;99.90;;;;;;4969697;28;39377;-77
2022/12/22 05:44:20;;;;;;;41.37;22.53;;;9.50;99.90;;;;;;4969941;28;37757;-77
2022/12/22 05:46:50;;;;;;;51.60;24.47;;;9.50;99.90;;;;;;4970050;28;35964;-77
2022/12/22 05:49:16;;;;;;;40.70;20.73;;;9.50;99.90;;;;;;4966336;28;38768;-77
2022/12/22 05:51:42;;;;;;;56.63;26.37;;;9.40;99.90;;;;;;4967925;28;37057;-77
2022/12/22 05:54:09;;;;;;;47.97;24.77;;;9.40;99.90;;;;;;4962205;28;36872;-77
2022/12/22 05:56:35;;;;;;;56.57;25.87;;;9.30;99.90;;;;;;4960196;28;35383;-77
2022/12/22 05:59:01;;;;;;;43.90;23.33;;;9.30;99.90;;;;;;4965200;28;39611;-76
2022/12/22 06:01:27;;;;;;;63.87;29.27;;;9.30;99.90;;;;;;4966370;28;38362;-77
2022/12/22 06:03:53;;;;;;;49.07;26.17;;;9.20;99.90;;;;;;4938501;28;37097;-77
2022/12/22 06:06:20;;;;;;;46.67;23.43;;;9.30;99.90;;;;;;4936985;28;36410;-77
2022/12/22 06:08:46;;;;;;;54.97;27.37;;;9.20;99.90;;;;;;4927530;28;37769;-77
2022/12/22 06:11:16;;;;;;;48.73;26.80;;;9.10;99.90;;;;;;4940568;28;36871;-77
2022/12/22 06:13:44;;;;;;;61.60;28.00;;;9.10;99.90;;;;;;4928214;28;37528;-76
2022/12/22 06:16:10;;;;;;;52.13;25.13;;;9.10;99.90;;;;;;4948300;28;37386;-76
2022/12/22 06:18:36;;;;;;;40.10;22.27;;;9.10;99.90;;;;;;4934216;28;37452;-76
2022/12/22 06:21:02;;;;;;;42.20;20.70;;;9.00;99.90;;;;;;4928588;28;36988;-74
2022/12/22 06:23:29;;;;;;;48.47;24.60;;;9.10;99.90;;;;;;4945898;28;37676;-76
2022/12/22 06:25:59;;;;;;;37.20;19.70;;;9.00;99.90;;;;;;4933086;28;36551;-76
2022/12/22 06:28:26;;;;;;;27.43;15.83;;;9.00;99.90;;;;;;4938560;28;38672;-76
2022/12/22 06:30:52;;;;;;;34.70;15.83;;;9.00;99.90;;;;;;4926452;28;41053;-75
2022/12/22 06:33:19;;;;;;;42.10;16.80;;;9.00;99.90;;;;;;4926230;28;37368;-75
2022/12/22 06:35:45;;;;;;;27.13;13.73;;;8.90;99.90;;;;;;4948960;28;38522;-75
2022/12/22 06:38:11;;;;;;;26.87;13.13;;;8.90;99.90;;;;;;4937950;28;39018;-73
2022/12/22 06:40:37;;;;;;;25.30;12.53;;;8.90;99.90;;;;;;4926201;28;35773;-74
2022/12/22 06:43:09;;;;;;;19.27;9.87;;;8.90;99.90;;;;;;4920532;28;36715;-74
2022/12/22 06:45:41;;;;;;;22.17;10.85;;;8.90;99.90;;;;;;4944729;28;38241;-74
2022/12/22 06:48:08;;;;;;;21.73;11.43;;;8.80;99.90;;;;;;4926832;28;38748;-74
2022/12/22 06:50:34;;;;;;;26.33;11.27;;;8.80;99.90;;;;;;4933478;28;37645;-74
2022/12/22 06:53:01;;;;;;;25.87;12.43;;;8.80;99.90;;;;;;4944579;28;39426;-75
2022/12/22 06:55:27;;;;;;;31.27;13.23;;;8.80;99.90;;;;;;4929321;28;37013;-74
2022/12/22 06:57:53;;;;;;;32.13;15.17;;;8.70;99.90;;;;;;4946658;28;39987;-74
2022/12/22 07:00:20;;;;;;;30.40;14.90;;;8.60;99.90;;;;;;4922368;28;37075;-73
2022/12/22 07:02:46;;;;;;;24.50;13.70;;;8.40;99.90;;;;;;4929656;28;37269;-75
2022/12/22 07:05:14;;;;;;;25.70;14.67;;;8.30;99.90;;;;;;4942239;28;37557;-75
2022/12/22 07:07:40;;;;;;;29.90;16.03;;;8.20;99.90;;;;;;4930782;28;37679;-74
2022/12/22 07:10:07;;;;;;;22.33;13.30;;;8.10;99.90;;;;;;4928026;28;37339;-74
2022/12/22 07:12:33;;;;;;;23.87;15.07;;;8.10;99.90;;;;;;4948097;28;39027;-74
2022/12/22 07:14:59;;;;;;;25.43;14.40;;;8.10;99.90;;;;;;4943797;28;37125;-74
2022/12/22 07:17:25;;;;;;;25.23;15.10;;;8.00;99.90;;;;;;4934180;28;38141;-73
2022/12/22 07:19:51;;;;;;;31.47;16.03;;;8.00;99.90;;;;;;4929275;28;38500;-74
2022/12/22 07:22:18;;;;;;;27.07;15.43;;;7.90;99.90;;;;;;4946999;28;37597;-73
2022/12/22 07:24:44;;;;;;;26.47;15.33;;;7.90;99.90;;;;;;4921034;28;36236;-73
2022/12/22 07:27:10;;;;;;;29.67;16.57;;;7.80;99.90;;;;;;4947411;28;38967;-74
2022/12/22 07:29:36;;;;;;;31.67;15.30;;;7.80;99.90;;;;;;4946465;28;39334;-74
2022/12/22 07:32:02;;;;;;;30.90;16.37;;;7.70;99.90;;;;;;4932356;28;36980;-75
2022/12/22 07:34:28;;;;;;;22.47;13.53;;;7.60;99.90;;;;;;4941232;28;37390;-75
2022/12/22 07:36:54;;;;;;;32.73;17.70;;;7.40;99.90;;;;;;4931429;28;37891;-75
2022/12/22 07:39:20;;;;;;;36.17;19.27;;;7.40;99.90;;;;;;4945781;28;38520;-76
2022/12/22 07:44:31;;;;;;;41.43;23.03;;;7.20;99.90;;;;;;4933728;28;49231;-75
2022/12/22 07:46:57;;;;;;;46.80;24.03;;;7.20;99.90;;;;;;4918655;28;37687;-75
2022/12/22 07:52:08;;;;;;;31.13;18.23;;;7.20;99.90;;;;;;4949113;28;38752;-75
2022/12/22 07:54:34;;;;;;;32.93;17.27;;;7.20;99.90;;;;;;4940165;28;37075;-75
2022/12/22 07:57:01;;;;;;;34.83;16.60;;;7.30;99.90;;;;;;4934435;28;37843;-76
2022/12/22 07:59:27;;;;;;;26.83;14.37;;;7.30;99.90;;;;;;4948854;28;36913;-76
2022/12/22 08:01:53;;;;;;;30.80;16.47;;;7.40;99.90;;;;;;4933321;28;37617;-76
2022/12/22 08:04:20;;;;;;;28.57;13.93;;;7.30;99.90;;;;;;4964690;28;37114;-75
2022/12/22 08:06:46;;;;;;;31.47;15.97;;;7.30;99.90;;;;;;4963186;28;38731;-75
2022/12/22 08:09:15;;;;;;;39.80;17.60;;;7.30;99.90;;;;;;4952432;28;37053;-75
2022/12/22 08:11:42;;;;;;;34.13;16.07;;;7.30;99.90;;;;;;4956436;28;38298;-75
2022/12/22 08:14:08;;;;;;;30.53;15.70;;;7.30;99.90;;;;;;4962061;28;36586;-76
2022/12/22 08:16:34;;;;;;;35.37;16.03;;;7.30;99.90;;;;;;4969051;28;38657;-76
2022/12/22 08:19:00;;;;;;;31.10;14.77;;;7.30;99.90;;;;;;4955547;28;38020;-75
2022/12/22 08:21:26;;;;;;;34.57;15.97;;;7.30;99.90;;;;;;4958563;28;37159;-75
2022/12/22 08:23:52;;;;;;;42.87;17.80;;;7.20;99.90;;;;;;4955825;28;36110;-74
2022/12/22 08:26:29;;;;;;;33.20;16.33;;;7.10;99.90;;;;;;4945934;28;37617;-75
2022/12/22 08:28:57;;;;;;;25.43;12.53;;;7.00;99.90;;;;;;4956238;28;38501;-76
2022/12/22 08:31:26;;;;;;;29.23;12.83;;;7.00;99.90;;;;;;4951564;28;36772;-76
2022/12/22 08:33:53;;;;;;;26.97;14.23;;;7.00;99.90;;;;;;4949294;28;37360;-76
2022/12/22 08:36:19;;;;;;;29.10;15.10;;;7.00;99.90;;;;;;4958165;28;39041;-76
2022/12/22 08:38:46;;;;;;;26.67;13.70;;;7.10;99.90;;;;;;4970428;28;39030;-75
2022/12/22 08:41:15;;;;;;;34.67;16.00;;;7.20;99.90;;;;;;4960337;28;38017;-76
2022/12/22 08:43:41;;;;;;;28.00;13.37;;;7.30;99.90;;;;;;4961285;28;37660;-75
2022/12/22 08:46:07;;;;;;;25.00;14.50;;;7.30;99.90;;;;;;4969764;28;39594;-76
2022/12/22 08:48:33;;;;;;;28.90;15.97;;;7.40;99.90;;;;;;4974120;28;38643;-76
2022/12/22 08:50:59;;;;;;;32.93;15.13;;;7.50;99.90;;;;;;4970969;28;37047;-76
2022/12/22 08:53:25;;;;;;;26.60;14.20;;;7.50;99.90;;;;;;4972547;28;37488;-76
2022/12/22 08:55:55;;;;;;;27.70;13.10;;;7.50;99.90;;;;;;4971044;28;40444;-75
2022/12/22 08:58:21;;;;;;;23.40;12.70;;;7.60;99.90;;;;;;4964916;28;38938;-76
2022/12/22 09:00:47;;;;;;;27.90;13.87;;;7.60;99.90;;;;;;4965839;28;36643;-75
2022/12/22 09:03:13;;;;;;;30.07;13.83;;;7.60;99.90;;;;;;4971575;28;37341;-76
2022/12/22 09:05:40;;;;;;;46.17;17.33;;;7.70;99.90;;;;;;4956362;28;38937;-76
2022/12/22 09:08:07;;;;;;;25.07;12.20;;;7.60;99.90;;;;;;4953757;28;37545;-75
2022/12/22 09:10:33;;;;;;;35.37;15.87;;;7.70;99.90;;;;;;4969708;28;37016;-76
2022/12/22 09:12:59;;;;;;;35.20;16.43;;;7.70;99.90;;;;;;4954698;28;37654;-76
2022/12/22 09:15:25;;;;;;;29.70;15.07;;;7.70;99.90;;;;;;4974693;28;39770;-76
2022/12/22 09:17:51;;;;;;;31.47;14.13;;;7.70;99.90;;;;;;4969461;28;38554;-76
2022/12/22 09:20:17;;;;;;;27.90;12.37;;;7.80;99.90;;;;;;4961167;28;36959;-75
2022/12/22 09:22:43;;;;;;;25.47;12.67;;;7.90;99.90;;;;;;4953871;28;36609;-76
2022/12/22 09:25:09;;;;;;;27.37;12.73;;;7.90;99.90;;;;;;4956657;28;37654;-76
2022/12/22 09:27:35;;;;;;;28.27;13.73;;;7.90;99.90;;;;;;4973561;28;38552;-76
2022/12/22 09:30:02;;;;;;;20.90;10.90;;;7.90;99.90;;;;;;4959505;28;36912;-76
2022/12/22 09:32:28;;;;;;;33.17;10.97;;;7.90;99.90;;;;;;4952722;28;36110;-76
2022/12/22 09:34:54;;;;;;;21.60;9.93;;;7.90;99.90;;;;;;4954599;28;37844;-76
2022/12/22 09:37:20;;;;;;;21.53;9.53;;;8.00;99.90;;;;;;4969055;28;38334;-76
2022/12/22 09:39:47;;;;;;;26.33;10.53;;;8.00;99.90;;;;;;4948721;28;37104;-76
2022/12/22 09:42:17;;;;;;;21.83;9.93;;;8.00;99.90;;;;;;4954230;28;37947;-75
2022/12/22 09:44:49;;;;;;;22.67;9.70;;;8.00;99.90;;;;;;4963828;28;38231;-75
2022/12/22 09:47:32;;;;;;;21.47;9.53;;;8.00;99.90;;;;;;4951076;28;38745;-74
2022/12/22 09:49:58;;;;;;;21.60;9.87;;;8.00;99.90;;;;;;4961154;28;39148;-75
2022/12/22 09:52:37;;;;;;;27.47;10.47;;;8.00;99.90;;;;;;4952721;28;38247;-75
2022/12/22 09:55:12;;;;;;;23.53;9.47;;;8.00;99.90;;;;;;4964916;28;39515;-75
2022/12/22 09:57:38;;;;;;;22.47;9.00;;;8.00;99.90;;;;;;4967715;28;48469;-74
2022/12/22 10:00:16;;;;;;;17.07;7.83;;;8.10;99.90;;;;;;4948437;28;38779;-74
2022/12/22 10:03:22;;;;;;;17.97;7.40;;;8.10;99.90;;;;;;4949446;28;47991;-74
2022/12/22 10:05:57;;;;;;;20.13;7.27;;;8.20;99.90;;;;;;4980845;28;47035;-74
2022/12/22 10:08:31;;;;;;;18.57;8.77;;;8.10;99.90;;;;;;4976170;28;37141;-75
2022/12/22 10:10:57;;;;;;;22.33;8.37;;;8.30;99.90;;;;;;4977018;28;38045;-74
2022/12/22 10:13:23;;;;;;;13.80;7.17;;;8.30;99.90;;;;;;4966674;28;37095;-74
2022/12/22 10:15:51;;;;;;;17.93;6.97;;;8.40;99.90;;;;;;4965554;28;37829;-74
2022/12/22 10:18:23;;;;;;;14.23;7.10;;;8.40;99.90;;;;;;4965522;28;38453;-73
2022/12/22 10:21:09;;;;;;;17.57;8.00;;;8.50;99.90;;;;;;4969584;28;39359;-73
2022/12/22 10:23:44;;;;;;;16.30;7.37;;;8.50;99.90;;;;;;4969488;28;49529;-74
2022/12/22 10:26:13;;;;;;;20.27;9.47;;;8.50;99.90;;;;;;4979652;28;37843;-74
2022/12/22 10:28:49;;;;;;;22.67;9.60;;;8.60;99.90;;;;;;4968139;28;38400;-73
2022/12/22 10:31:17;;;;;;;17.60;9.03;;;8.70;99.90;;;;;;4966013;28;38161;-74
2022/12/22 10:33:46;;;;;;;25.80;12.93;;;8.70;99.90;;;;;;4963711;28;37724;-74
2022/12/22 10:36:18;;;;;;;25.13;16.70;;;8.70;99.90;;;;;;4968165;28;38714;-74
2022/12/22 10:38:59;;;;;;;32.70;19.73;;;8.70;99.90;;;;;;4964030;28;37508;-73
2022/12/22 10:41:33;;;;;;;59.97;24.83;;;8.70;99.90;;;;;;4961930;28;37474;-74
2022/12/22 10:44:09;;;;;;;43.33;21.57;;;8.40;99.90;;;;;;4958381;28;36272;-74
2022/12/22 10:46:52;;;;;;;53.20;22.93;;;8.20;99.90;;;;;;4961760;28;48335;-74
2022/12/22 10:49:25;;;;;;;39.90;20.20;;;8.10;99.90;;;;;;4962065;28;38453;-74
2022/12/22 10:51:54;;;;;;;77.82;22.40;;;8.00;99.90;;;;;;4964416;28;38929;-74
2022/12/22 10:54:30;;;;;;;89.57;23.83;;;7.80;99.90;;;;;;4962775;28;38197;-73
2022/12/22 10:57:04;;;;;;;68.50;19.80;;;7.80;99.90;;;;;;4962895;28;38906;-74
2022/12/22 10:59:32;;;;;;;72.17;20.00;;;7.80;99.90;;;;;;4962934;28;49164;-74
2022/12/22 11:02:19;;;;;;;66.03;20.87;;;7.80;99.90;;;;;;4960082;28;38317;-73
2022/12/22 11:04:47;;;;;;;53.33;20.83;;;7.70;99.90;;;;;;4962589;28;48033;-74
2022/12/22 11:07:13;;;;;;;39.13;20.17;;;7.70;99.90;;;;;;4965613;28;37672;-73
2022/12/22 11:09:40;;;;;;;38.90;20.93;;;7.70;99.90;;;;;;4958849;28;41245;-75
2022/12/22 11:12:12;;;;;;;70.80;26.70;;;7.80;99.90;;;;;;4959586;28;37294;-76
2022/12/22 11:15:30;;;;;;;60.53;25.65;;;7.80;99.90;;;;;;4957383;28;37249;-75
2022/12/22 11:18:33;;;;;;;70.17;27.10;;;7.80;99.90;;;;;;4907389;28;48666;-74
2022/12/22 11:21:20;;;;;;;59.00;25.95;;;7.80;99.90;;;;;;4955381;28;46985;-75
2022/12/22 11:24:13;;;;;;;78.50;28.03;;;7.80;99.90;;;;;;4961359;28;48570;-73
2022/12/22 11:27:01;;;;;;;80.28;30.52;;;7.80;99.90;;;;;;4939075;28;46990;-75
2022/12/22 11:29:35;;;;;;;53.10;27.63;;;7.80;99.90;;;;;;4963279;28;37661;-74
2022/12/22 11:32:26;;;;;;;71.63;32.17;;;7.90;99.90;;;;;;4966596;28;38166;-74
2022/12/22 11:35:06;;;;;;;70.43;33.43;;;8.00;99.90;;;;;;4975146;28;48893;-74
2022/12/22 11:37:51;;;;;;;77.37;34.50;;;8.00;99.90;;;;;;4963153;28;49046;-75
2022/12/22 11:40:23;;;;;;;64.30;33.30;;;8.10;99.90;;;;;;4963368;28;39842;-74
2022/12/22 11:42:58;;;;;;;78.80;34.25;;;8.00;99.90;;;;;;4964759;28;38456;-74
2022/12/22 11:45:35;;;;;;;73.03;33.30;;;8.10;99.90;;;;;;4963586;28;37508;-74
2022/12/22 11:48:22;;;;;;;63.33;31.67;;;8.20;99.90;;;;;;4965035;28;38384;-74
2022/12/22 11:50:53;;;;;;;68.73;31.37;;;8.20;99.90;;;;;;4955638;28;47045;-74
2022/12/22 11:54:06;;;;;;;71.73;33.43;;;8.20;99.90;;;;;;4967191;28;39447;-74
2022/12/22 11:56:38;;;;;;;84.85;36.08;;;8.20;99.90;;;;;;4966184;28;47068;-74
2022/12/22 11:59:20;;;;;;;78.00;35.60;;;8.30;99.90;;;;;;4966356;28;37512;-74
2022/12/22 12:02:13;;;;;;;72.45;35.42;;;8.40;99.90;;;;;;4966139;28;46917;-74
2022/12/22 12:05:21;;;;;;;65.40;33.40;;;8.40;99.90;;;;;;4960459;28;47274;-74
2022/12/22 12:08:08;;;;;;;68.80;35.17;;;8.50;99.90;;;;;;4962954;28;47566;-75
2022/12/22 12:10:44;;;;;;;60.73;34.20;;;8.40;99.90;;;;;;4957874;28;46932;-75
2022/12/22 12:13:19;;;;;;;63.27;32.13;;;8.50;99.90;;;;;;4959159;28;39088;-74
2022/12/22 12:15:53;;;;;;;62.00;33.07;;;8.60;99.90;;;;;;4964093;28;37421;-75
2022/12/22 12:18:46;;;;;;;59.43;32.83;;;8.60;99.90;;;;;;4968245;28;36694;-74
2022/12/22 12:21:22;;;;;;;57.13;33.55;;;8.60;99.90;;;;;;4961021;28;36730;-74
2022/12/22 12:24:09;;;;;;;68.57;35.07;;;8.60;99.90;;;;;;4963429;28;39731;-74
2022/12/22 12:26:41;;;;;;;61.43;34.87;;;8.60;99.90;;;;;;4964517;28;46993;-74
2022/12/22 12:29:37;;;;;;;58.60;32.25;;;8.70;99.90;;;;;;4970109;28;39157;-75
2022/12/22 12:32:12;;;;;;;52.10;31.27;;;8.70;99.90;;;;;;4963757;28;20115;-73
2022/12/22 12:34:43;;;;;;;51.10;31.60;;;8.70;99.90;;;;;;4956962;28;37216;-73
2022/12/22 12:37:46;;;;;;;56.43;31.93;;;8.70;99.90;;;;;;4970645;28;37813;-74
2022/12/22 12:40:30;;;;;;;55.17;31.92;;;8.70;99.90;;;;;;4915409;28;38797;-72
2022/12/22 12:42:58;;;;;;;47.97;29.23;;;8.80;99.90;;;;;;4952326;28;37492;-72
2022/12/22 12:45:42;;;;;;;59.13;30.73;;;8.70;99.90;;;;;;4960563;28;39679;-73
2022/12/22 12:48:23;;;;;;;56.13;30.60;;;8.80;99.90;;;;;;4964616;28;38568;-74
2022/12/22 12:50:58;;;;;;;44.00;27.77;;;8.80;99.90;;;;;;4959416;28;38724;-75
2022/12/22 12:53:26;;;;;;;44.27;28.40;;;8.80;99.90;;;;;;4963030;28;38392;-75
2022/12/22 12:55:55;;;;;;;49.57;28.87;;;8.80;99.90;;;;;;4967853;28;38064;-75
2022/12/22 12:58:48;;;;;;;45.17;29.03;;;8.80;99.90;;;;;;4959580;28;38198;-74
2022/12/22 13:01:26;;;;;;;46.35;29.13;;;8.90;99.90;;;;;;4962411;28;37338;-75
2022/12/22 13:03:52;;;;;;;49.07;29.43;;;8.90;99.90;;;;;;4963919;28;37549;-74
2022/12/22 13:06:48;;;;;;;44.93;29.17;;;9.00;99.90;;;;;;4944137;28;36629;-75
2022/12/22 13:09:19;;;;;;;52.07;31.30;;;8.90;99.90;;;;;;4965671;28;40011;-75
2022/12/22 13:11:47;;;;;;;48.13;29.70;;;9.00;99.90;;;;;;4962872;28;38548;-74
2022/12/22 13:14:51;;;;;;;51.07;31.07;;;9.00;99.90;;;;;;4944905;28;38429;-74
2022/12/22 13:17:46;;;;;;;52.23;32.00;;;9.10;99.90;;;;;;4962509;28;38699;-74
2022/12/22 13:20:18;;;;;;;52.73;31.47;;;9.10;99.90;;;;;;4951032;28;37388;-74
2022/12/22 13:22:44;;;;;;;50.57;32.07;;;9.20;99.90;;;;;;4966878;28;38290;-74
2022/12/22 13:25:15;;;;;;;45.13;29.80;;;9.20;99.90;;;;;;4942412;28;36471;-74
2022/12/22 13:27:42;;;;;;;53.67;31.03;;;9.30;99.90;;;;;;4948640;28;39065;-75
2022/12/22 13:30:17;;;;;;;53.63;30.50;;;9.30;99.90;;;;;;4923876;28;38669;-75
2022/12/22 13:32:46;;;;;;;54.20;32.07;;;9.30;99.90;;;;;;4941056;28;41330;-75
2022/12/22 13:35:22;;;;;;;57.37;32.60;;;9.30;99.90;;;;;;4951592;28;37911;-75
2022/12/22 13:37:52;;;;;;;53.23;33.40;;;9.30;99.90;;;;;;4956476;28;37975;-74
2022/12/22 13:40:29;;;;;;;59.47;33.80;;;9.30;99.90;;;;;;4939794;28;38102;-74
2022/12/22 13:42:59;;;;;;;55.23;33.43;;;9.30;99.90;;;;;;4959066;28;40077;-75
2022/12/22 13:45:38;;;;;;;52.93;32.60;;;9.30;99.90;;;;;;4960298;28;38751;-75
2022/12/22 13:48:18;;;;;;;62.63;33.90;;;9.30;99.90;;;;;;4957834;28;37764;-75
2022/12/22 13:50:51;;;;;;;57.87;33.67;;;9.30;99.90;;;;;;4961147;28;39441;-75
2022/12/22 13:53:27;;;;;;;49.57;32.83;;;9.30;99.90;;;;;;4958054;28;38152;-75
2022/12/22 13:55:53;;;;;;;55.33;33.10;;;9.40;99.90;;;;;;4959137;28;36294;-74
2022/12/22 13:58:43;;;;;;;51.67;30.40;;;9.40;99.90;;;;;;4960308;28;39986;-75
2022/12/22 14:01:09;;;;;;;48.37;30.93;;;9.40;99.90;;;;;;4945140;28;38243;-74
2022/12/22 14:03:38;;;;;;;46.97;29.77;;;9.50;99.90;;;;;;4961082;28;38801;-75
2022/12/22 14:06:25;;;;;;;47.40;28.97;;;9.50;99.90;;;;;;4958400;28;36842;-74
2022/12/22 14:08:51;;;;;;;42.80;28.93;;;9.50;99.90;;;;;;4965624;28;48907;-75
2022/12/22 14:11:18;;;;;;;55.53;30.77;;;9.60;99.90;;;;;;4942877;28;37216;-75
2022/12/22 14:13:44;;;;;;;48.13;29.90;;;9.60;99.90;;;;;;4960748;28;37761;-75
2022/12/22 14:16:14;;;;;;;47.80;30.50;;;9.60;99.90;;;;;;4947066;28;36305;-75
2022/12/22 14:18:46;;;;;;;45.43;30.00;;;9.60;99.90;;;;;;4966100;28;38991;-75
2022/12/22 14:21:12;;;;;;;47.50;30.80;;;9.60;99.90;;;;;;4952825;28;38202;-75
2022/12/22 14:23:41;;;;;;;46.60;30.27;;;9.60;99.90;;;;;;4950071;28;36868;-75
2022/12/22 14:26:13;;;;;;;49.07;30.93;;;9.60;99.90;;;;;;4948429;28;36265;-76
2022/12/22 14:28:49;;;;;;;49.78;31.52;;;9.50;99.90;;;;;;4948756;28;37906;-76
2022/12/22 14:31:16;;;;;;;53.53;33.80;;;9.50;99.90;;;;;;4944943;28;37670;-76
2022/12/22 14:34:04;;;;;;;54.23;33.77;;;9.50;99.90;;;;;;4960013;28;39151;-76
2022/12/22 14:36:37;;;;;;;55.13;33.73;;;9.40;99.90;;;;;;4948454;28;47091;-76
2022/12/22 14:39:09;;;;;;;54.03;34.77;;;9.40;99.90;;;;;;4940661;28;39153;-77
2022/12/22 14:41:41;;;;;;;57.80;35.80;;;9.40;99.90;;;;;;4946428;28;38258;-76
2022/12/22 14:44:14;;;;;;;;;;;9.40;99.90;;;;;;4949008;28;37246;-76
2022/12/22 14:46:43;;;;;;;58.90;36.17;;;9.40;99.90;;;;;;4964117;28;37700;-76
2022/12/22 14:49:14;;;;;;;54.40;33.77;;;9.40;99.90;;;;;;4959055;28;39486;-76
2022/12/22 14:51:41;;;;;;;55.05;33.75;;;9.30;99.90;;;;;;4956662;28;37682;-76
2022/12/22 14:54:22;;;;;;;61.17;36.67;;;9.40;99.90;;;;;;4948207;28;37169;-76
2022/12/22 14:56:51;;;;;;;53.67;32.43;;;9.30;99.90;;;;;;4944992;28;36186;-77
2022/12/22 14:59:30;;;;;;;52.93;33.43;;;9.40;99.90;;;;;;4957693;28;38055;-75
2022/12/22 15:01:57;;;;;;;56.70;33.60;;;9.40;99.90;;;;;;4944840;28;39339;-75
2022/12/22 15:04:23;;;;;;;44.00;30.60;;;9.30;99.90;;;;;;4946816;28;37335;-76
2022/12/22 15:06:49;;;;;;;46.33;29.27;;;9.30;99.90;;;;;;4958346;28;38029;-75
2022/12/22 15:09:15;;;;;;;41.47;27.03;;;9.30;99.90;;;;;;4938931;28;37644;-76
2022/12/22 15:11:48;;;;;;;37.50;26.40;;;9.40;99.90;;;;;;4943185;28;38513;-75
2022/12/22 15:14:16;;;;;;;;;;;9.40;99.90;;;;;;4957207;28;39540;-75
2022/12/22 15:16:44;;;;;;;43.87;26.63;;;9.40;99.90;;;;;;4960379;28;37157;-75
2022/12/22 15:19:15;;;;;;;38.63;25.20;;;9.40;99.90;;;;;;4963578;28;39412;-75
2022/12/22 15:21:41;;;;;;;36.37;23.53;;;9.50;99.90;;;;;;4943877;28;37274;-74
2022/12/22 15:24:14;;;;;;;39.70;25.30;;;9.40;99.90;;;;;;4960352;28;38058;-75
2022/12/22 15:26:41;;;;;;;37.50;25.40;;;9.40;99.90;;;;;;4961523;28;38075;-75
2022/12/22 15:29:07;;;;;;;41.77;27.33;;;9.40;99.90;;;;;;4941964;28;39073;-75
2022/12/22 15:31:33;;;;;;;42.77;30.40;;;9.40;99.90;;;;;;4963110;28;39269;-74
2022/12/22 15:34:02;;;;;;;43.47;30.83;;;9.40;99.90;;;;;;4948570;28;37581;-75
2022/12/22 15:36:29;;;;;;;41.63;31.83;;;9.40;99.90;;;;;;4964845;28;49062;-74
2022/12/22 15:38:55;;;;;;;47.17;32.53;;;9.40;99.90;;;;;;4959067;28;37150;-75
2022/12/22 15:41:21;;;;;;;51.10;34.50;;;9.40;99.90;;;;;;4962330;28;38709;-75
2022/12/22 15:43:47;;;;;;;51.47;34.17;;;9.40;99.90;;;;;;4960527;28;38163;-75
2022/12/22 15:46:15;;;;;;;50.97;35.97;;;9.40;99.90;;;;;;4947588;28;36470;-75
2022/12/22 15:48:42;;;;;;;49.67;34.23;;;9.40;99.90;;;;;;4945993;28;39067;-75
2022/12/22 15:51:19;;;;;;;59.50;37.43;;;9.40;99.90;;;;;;4932473;28;38573;-75
2022/12/22 15:53:45;;;;;;;51.10;34.30;;;9.40;99.90;;;;;;4951637;28;37466;-75
2022/12/22 15:56:18;;;;;;;53.23;35.37;;;9.40;99.90;;;;;;4944978;28;37484;-75
2022/12/22 15:58:44;;;;;;;52.38;36.25;;;9.40;99.90;;;;;;4950093;28;37568;-76
2022/12/22 16:01:11;;;;;;;53.00;34.73;;;9.50;99.90;;;;;;4967956;28;39228;-75
2022/12/22 16:03:37;;;;;;;50.23;35.30;;;9.50;99.90;;;;;;4957829;28;36904;-74
2022/12/22 16:06:05;;;;;;;54.20;35.33;;;9.50;99.90;;;;;;4964457;28;35911;-74
2022/12/22 16:08:36;;;;;;;46.03;33.07;;;9.50;99.90;;;;;;4977883;28;46154;-74
2022/12/22 16:11:05;;;;;;;54.37;34.97;;;9.60;99.90;;;;;;4966060;28;38645;-74
2022/12/22 16:13:31;;;;;;;48.23;33.70;;;9.60;99.90;;;;;;4958059;28;49025;-74
2022/12/22 16:15:57;;;;;;;50.07;34.47;;;9.70;99.90;;;;;;4968099;28;36385;-74
2022/12/22 16:18:24;;;;;;;42.00;32.87;;;9.70;99.90;;;;;;4959284;28;38608;-74
2022/12/22 16:20:50;;;;;;;42.07;31.57;;;9.80;99.90;;;;;;4959303;28;36953;-74
2022/12/22 16:23:20;;;;;;;45.47;33.03;;;9.80;99.90;;;;;;4959526;28;37939;-75
2022/12/22 16:25:47;;;;;;;45.07;33.77;;;9.80;99.90;;;;;;4963211;28;37294;-74
2022/12/22 16:28:16;;;;;;;44.07;31.33;;;9.80;99.90;;;;;;4961226;28;38830;-74
2022/12/22 16:30:42;;;;;;;40.47;30.80;;;9.80;99.90;;;;;;4960919;28;37634;-73
2022/12/22 16:33:12;;;;;;;41.83;29.90;;;9.80;99.90;;;;;;4960810;28;35938;-73
2022/12/22 16:35:38;;;;;;;45.23;30.43;;;9.90;99.90;;;;;;4962633;28;35027;-74
2022/12/22 16:38:05;;;;;;;43.00;30.57;;;9.90;99.90;;;;;;4965364;28;40212;-73